createdAt,value
2022-12-22T00:00:05.148Z,15.5
2022-12-22T00:01:07.681Z,15.4
2022-12-22T00:02:10.339Z,15.5
2022-12-22T00:03:14.067Z,15.5
2022-12-22T00:04:17.587Z,15.4
2022-12-22T00:05:20.404Z,15.4
2022-12-22T00:06:22.927Z,15.4
2022-12-22T00:07:25.177Z,15.5
2022-12-22T00:08:27.761Z,15.5
2022-12-22T00:09:30.358Z,15.5
2022-12-22T00:10:32.871Z,15.4
2022-12-22T00:11:35.375Z,15.4
2022-12-22T00:12:37.637Z,15.6
2022-12-22T00:13:39.894Z,15.7
2022-12-22T00:14:42.127Z,15.7
2022-12-22T00:15:44.649Z,15.7
2022-12-22T00:16:47.025Z,15.4
2022-12-22T00:17:49.775Z,15.7
2022-12-22T00:18:52.307Z,15.7
2022-12-22T00:19:54.827Z,15.6
2022-12-22T00:20:57.366Z,15.5
2022-12-22T00:21:59.879Z,15.6
2022-12-22T00:23:01.851Z,15.6
2022-12-22T00:24:04.449Z,15.5
2022-12-22T00:25:06.947Z,15.6
2022-12-22T00:26:09.448Z,15.6
2022-12-22T00:27:11.141Z,15.6
2022-12-22T00:28:13.393Z,15.5
2022-12-22T00:29:15.966Z,15.5
2022-12-22T00:30:18.222Z,15.6
2022-12-22T00:31:20.972Z,15.6
2022-12-22T00:32:23.215Z,15.6
2022-12-22T00:33:25.747Z,15.6
2022-12-22T00:35:33.238Z,15.6
2022-12-22T00:36:35.470Z,15.7
2022-12-22T00:37:37.969Z,15.8
2022-12-22T00:38:39.951Z,15.7
2022-12-22T00:39:42.570Z,15.6
2022-12-22T00:40:44.793Z,15.6
2022-12-22T00:41:46.721Z,15.7
2022-12-22T00:42:49.213Z,15.7
2022-12-22T00:43:51.740Z,15.6
2022-12-22T00:44:54.269Z,15.7
2022-12-22T00:45:56.601Z,15.7
2022-12-22T00:46:59.391Z,15.6
2022-12-22T00:48:01.915Z,15.8
2022-12-22T00:49:04.137Z,15.7
2022-12-22T00:50:06.659Z,15.7
2022-12-22T00:51:08.850Z,15.7
2022-12-22T00:52:11.375Z,15.6
2022-12-22T00:53:13.865Z,15.6
2022-12-22T00:54:16.452Z,15.7
2022-12-22T00:55:19.049Z,15.7
2022-12-22T00:56:21.290Z,15.7
2022-12-22T00:57:23.498Z,15.7
2022-12-22T00:58:25.723Z,15.7
2022-12-22T00:59:28.260Z,15.7
2022-12-22T01:00:30.838Z,15.8
2022-12-22T01:01:33.544Z,15.7
2022-12-22T01:02:37.026Z,15.7
2022-12-22T01:03:40.803Z,15.7
2022-12-22T01:04:43.671Z,15.7
2022-12-22T01:05:46.598Z,15.8
2022-12-22T01:06:49.155Z,15.8
2022-12-22T01:07:51.727Z,15.7
2022-12-22T01:08:54.280Z,15.7
2022-12-22T01:09:56.550Z,15.7
2022-12-22T01:10:59.129Z,15.7
2022-12-22T01:12:01.683Z,15.7
2022-12-22T01:13:04.182Z,15.7
2022-12-22T01:14:06.683Z,15.8
2022-12-22T01:15:09.208Z,15.8
2022-12-22T01:16:11.887Z,15.8
2022-12-22T01:17:14.389Z,15.8
2022-12-22T01:18:16.909Z,15.7
2022-12-22T01:19:19.364Z,15.8
2022-12-22T01:20:21.642Z,15.8
2022-12-22T01:21:24.150Z,15.7
2022-12-22T01:22:26.675Z,15.7
2022-12-22T01:23:28.911Z,15.8
2022-12-22T01:24:31.155Z,15.7
2022-12-22T01:25:33.422Z,15.8
2022-12-22T01:26:36.031Z,15.8
2022-12-22T01:27:38.260Z,15.8
2022-12-22T01:28:40.479Z,15.8
2022-12-22T01:29:42.992Z,15.8
2022-12-22T01:30:45.318Z,15.9
2022-12-22T01:31:48.097Z,15.8
2022-12-22T01:32:50.362Z,15.8
2022-12-22T01:33:52.567Z,15.8
2022-12-22T01:34:55.078Z,15.8
2022-12-22T01:35:57.039Z,15.8
2022-12-22T01:36:58.970Z,15.8
2022-12-22T01:38:01.470Z,15.7
2022-12-22T01:39:03.739Z,15.7
2022-12-22T01:40:05.978Z,15.8
2022-12-22T01:41:08.528Z,15.8
2022-12-22T01:42:11.110Z,15.8
2022-12-22T01:43:13.623Z,15.8
2022-12-22T01:44:16.105Z,15.8
2022-12-22T01:45:18.603Z,15.8
2022-12-22T01:46:21.225Z,15.8
2022-12-22T01:47:23.908Z,15.8
2022-12-22T01:48:26.406Z,15.8
2022-12-22T01:49:28.355Z,15.9
2022-12-22T01:50:30.903Z,15.9
2022-12-22T01:51:33.145Z,15.8
2022-12-22T01:52:35.665Z,15.8
2022-12-22T01:53:38.217Z,15.8
2022-12-22T01:54:40.729Z,15.8
2022-12-22T01:55:43.333Z,15.8
2022-12-22T01:56:47.068Z,15.8
2022-12-22T01:57:49.654Z,15.9
2022-12-22T01:58:52.167Z,15.9
2022-12-22T01:59:54.788Z,15.8
2022-12-22T02:00:57.602Z,15.8
2022-12-22T02:02:00.438Z,15.9
2022-12-22T02:03:03.857Z,15.8
2022-12-22T02:04:06.297Z,15.9
2022-12-22T02:05:08.829Z,15.9
2022-12-22T02:06:11.343Z,15.8
2022-12-22T02:07:13.857Z,15.8
2022-12-22T02:08:16.389Z,15.9
2022-12-22T02:09:18.902Z,16
2022-12-22T02:10:21.138Z,15.8
2022-12-22T02:11:23.638Z,15.8
2022-12-22T02:12:25.930Z,15.8
2022-12-22T02:13:28.515Z,15.9
2022-12-22T02:14:31.269Z,15.9
2022-12-22T02:15:33.806Z,15.9
2022-12-22T02:16:36.391Z,15.9
2022-12-22T02:17:38.690Z,15.9
2022-12-22T02:18:41.226Z,15.9
2022-12-22T02:19:43.803Z,15.8
2022-12-22T02:20:46.322Z,15.9
2022-12-22T02:21:48.879Z,15.9
2022-12-22T02:22:51.365Z,15.8
2022-12-22T02:23:53.594Z,15.9
2022-12-22T02:24:55.540Z,15.8
2022-12-22T02:25:58.052Z,15.9
2022-12-22T02:27:00.537Z,15.9
2022-12-22T02:28:03.148Z,16
2022-12-22T02:29:05.722Z,15.8
2022-12-22T02:30:08.255Z,15.9
2022-12-22T02:31:10.935Z,15.8
2022-12-22T02:32:13.176Z,15.9
2022-12-22T02:33:15.661Z,15.7
2022-12-22T02:34:18.204Z,15.9
2022-12-22T02:35:20.709Z,15.9
2022-12-22T02:36:22.936Z,15.9
2022-12-22T02:37:25.380Z,15.8
2022-12-22T02:38:28.243Z,15.9
2022-12-22T02:39:30.793Z,15.8
2022-12-22T02:41:38.272Z,15.9
2022-12-22T02:42:40.573Z,16
2022-12-22T02:43:43.097Z,15.9
2022-12-22T02:44:45.713Z,16
2022-12-22T02:45:48.283Z,15.9
2022-12-22T02:46:50.943Z,15.9
2022-12-22T02:47:53.720Z,15.9
2022-12-22T02:48:55.665Z,15.9
2022-12-22T02:49:57.960Z,15.9
2022-12-22T02:51:00.521Z,15.8
2022-12-22T02:52:02.878Z,16
2022-12-22T02:53:05.599Z,15.8
2022-12-22T02:54:08.109Z,15.9
2022-12-22T02:55:10.626Z,15.9
2022-12-22T02:56:13.290Z,15.8
2022-12-22T02:57:15.984Z,15.9
2022-12-22T02:58:18.211Z,15.9
2022-12-22T02:59:20.769Z,15.9
2022-12-22T03:00:23.499Z,15.8
2022-12-22T03:01:26.856Z,16
2022-12-22T03:02:30.445Z,15.8
2022-12-22T03:03:34.582Z,15.8
2022-12-22T03:04:38.151Z,15.9
2022-12-22T03:05:40.723Z,15.8
2022-12-22T03:06:43.234Z,15.9
2022-12-22T03:07:45.725Z,16
2022-12-22T03:08:48.253Z,16
2022-12-22T03:09:50.751Z,15.9
2022-12-22T03:10:53.260Z,16
2022-12-22T03:11:55.473Z,15.9
2022-12-22T03:12:57.995Z,16
2022-12-22T03:14:00.471Z,15.9
2022-12-22T03:15:02.508Z,15.9
2022-12-22T03:16:05.209Z,15.9
2022-12-22T03:17:07.487Z,16.1
2022-12-22T03:18:09.750Z,16.1
2022-12-22T03:19:11.984Z,16
2022-12-22T03:20:14.214Z,16
2022-12-22T03:21:16.786Z,15.9
2022-12-22T03:22:18.718Z,16
2022-12-22T03:23:21.265Z,16.1
2022-12-22T03:24:23.778Z,16
2022-12-22T03:25:26.292Z,15.9
2022-12-22T03:26:28.539Z,15.9
2022-12-22T03:27:30.793Z,15.9
2022-12-22T03:28:33.323Z,15.9
2022-12-22T03:29:35.825Z,15.9
2022-12-22T03:30:38.416Z,16
2022-12-22T03:31:40.891Z,16
2022-12-22T03:32:43.934Z,16.1
2022-12-22T03:33:46.162Z,16
2022-12-22T03:34:48.086Z,15.9
2022-12-22T03:35:50.060Z,16.1
2022-12-22T03:36:52.329Z,16
2022-12-22T03:37:54.579Z,16.1
2022-12-22T03:38:57.098Z,16.1
2022-12-22T03:39:59.074Z,16
2022-12-22T03:41:01.317Z,16
2022-12-22T03:42:03.584Z,16
2022-12-22T03:43:05.812Z,16.1
2022-12-22T03:44:08.304Z,16
2022-12-22T03:45:10.538Z,15.8
2022-12-22T03:46:13.158Z,15.8
2022-12-22T03:47:16.306Z,15.9
2022-12-22T03:48:19.011Z,15.9
2022-12-22T03:49:21.549Z,16
2022-12-22T03:50:23.775Z,15.9
2022-12-22T03:51:26.344Z,15.9
2022-12-22T03:52:28.718Z,15.9
2022-12-22T03:53:31.285Z,16
2022-12-22T03:54:33.268Z,16
2022-12-22T03:55:35.804Z,15.9
2022-12-22T03:56:38.081Z,16
2022-12-22T03:57:40.368Z,15.8
2022-12-22T03:58:42.605Z,16
2022-12-22T03:59:45.102Z,16
2022-12-22T04:00:47.650Z,16
2022-12-22T04:01:50.392Z,16
2022-12-22T04:02:54.119Z,15.9
2022-12-22T04:03:56.903Z,16.1
2022-12-22T04:04:59.231Z,16
2022-12-22T04:06:01.515Z,16
2022-12-22T04:07:03.727Z,16.1
2022-12-22T04:08:06.257Z,15.8
2022-12-22T04:09:08.516Z,15.9
2022-12-22T04:10:10.754Z,16
2022-12-22T04:11:12.989Z,16
2022-12-22T04:12:15.262Z,16
2022-12-22T04:13:17.504Z,15.9
2022-12-22T04:14:19.466Z,16.1
2022-12-22T04:15:21.960Z,15.9
2022-12-22T04:16:24.030Z,15.9
2022-12-22T04:17:26.878Z,15.9
2022-12-22T04:18:29.475Z,16.1
2022-12-22T04:19:32.028Z,15.9
2022-12-22T04:20:34.572Z,16
2022-12-22T04:21:37.059Z,15.9
2022-12-22T04:22:39.551Z,15.9
2022-12-22T04:23:42.080Z,15.9
2022-12-22T04:24:44.619Z,15.8
2022-12-22T04:25:47.146Z,15.9
2022-12-22T04:26:49.720Z,15.9
2022-12-22T04:27:52.227Z,15.9
2022-12-22T04:28:54.957Z,15.8
2022-12-22T04:29:57.463Z,15.8
2022-12-22T04:30:59.698Z,15.9
2022-12-22T04:32:01.944Z,15.9
2022-12-22T04:33:04.608Z,15.9
2022-12-22T04:34:07.211Z,15.9
2022-12-22T04:35:09.467Z,15.9
2022-12-22T04:36:11.977Z,15.8
2022-12-22T04:38:19.321Z,15.9
2022-12-22T04:39:22.000Z,15.8
2022-12-22T04:40:24.587Z,15.8
2022-12-22T04:41:27.142Z,15.8
2022-12-22T04:42:29.387Z,15.9
2022-12-22T04:43:31.383Z,15.8
2022-12-22T04:44:33.699Z,15.8
2022-12-22T04:45:36.101Z,15.8
2022-12-22T04:46:38.922Z,15.8
2022-12-22T04:47:41.231Z,15.9
2022-12-22T04:48:43.801Z,15.8
2022-12-22T04:49:46.401Z,15.9
2022-12-22T04:50:48.926Z,15.8
2022-12-22T04:51:51.463Z,15.8
2022-12-22T04:52:53.964Z,15.8
2022-12-22T04:53:56.332Z,15.8
2022-12-22T04:54:58.893Z,15.8
2022-12-22T04:56:01.150Z,15.9
2022-12-22T04:57:03.720Z,15.9
2022-12-22T04:58:06.219Z,15.8
2022-12-22T04:59:08.168Z,15.8
2022-12-22T05:00:10.730Z,15.8
2022-12-22T05:01:13.414Z,15.8
2022-12-22T05:02:16.545Z,15.8
2022-12-22T05:03:19.647Z,15.7
2022-12-22T05:04:24.330Z,15.8
2022-12-22T05:05:26.912Z,15.8
2022-12-22T05:06:29.172Z,15.7
2022-12-22T05:07:31.724Z,15.9
2022-12-22T05:08:33.987Z,15.9
2022-12-22T05:09:36.562Z,15.8
2022-12-22T05:10:38.869Z,15.9
2022-12-22T05:11:41.144Z,15.8
2022-12-22T05:12:43.639Z,15.8
2022-12-22T05:13:47.272Z,15.8
2022-12-22T05:14:49.782Z,15.8
2022-12-22T05:15:52.292Z,15.8
2022-12-22T05:16:54.998Z,15.9
2022-12-22T05:17:57.732Z,15.7
2022-12-22T05:19:00.029Z,15.8
2022-12-22T05:20:02.576Z,15.8
2022-12-22T05:21:05.252Z,15.8
2022-12-22T05:22:07.788Z,15.8
2022-12-22T05:23:10.327Z,15.8
2022-12-22T05:24:12.858Z,15.8
2022-12-22T05:25:15.117Z,15.8
2022-12-22T05:26:17.371Z,15.8
2022-12-22T05:27:19.878Z,15.8
2022-12-22T05:28:22.393Z,15.7
2022-12-22T05:29:24.903Z,15.8
2022-12-22T05:30:27.210Z,15.8
2022-12-22T05:31:30.265Z,15.8
2022-12-22T05:32:32.733Z,15.8
2022-12-22T05:33:34.960Z,15.8
2022-12-22T05:34:37.511Z,15.8
2022-12-22T05:35:39.809Z,15.8
2022-12-22T05:36:42.395Z,15.8
2022-12-22T05:37:44.911Z,15.8
2022-12-22T05:38:47.480Z,15.8
2022-12-22T05:39:49.785Z,15.8
2022-12-22T05:40:53.125Z,15.8
2022-12-22T05:41:57.819Z,15.7
2022-12-22T05:42:59.795Z,15.8
2022-12-22T05:44:02.339Z,15.8
2022-12-22T05:45:04.836Z,15.7
2022-12-22T05:46:07.441Z,15.7
2022-12-22T05:47:09.907Z,15.7
2022-12-22T05:48:12.437Z,15.7
2022-12-22T05:49:14.697Z,15.8
2022-12-22T05:50:16.922Z,15.7
2022-12-22T05:51:19.184Z,15.8
2022-12-22T05:52:21.757Z,15.7
2022-12-22T05:53:24.250Z,15.7
2022-12-22T05:54:26.802Z,15.8
2022-12-22T05:55:28.447Z,15.7
2022-12-22T05:56:30.735Z,15.8
2022-12-22T05:57:33.265Z,15.7
2022-12-22T05:58:35.786Z,15.7
2022-12-22T05:59:38.028Z,15.7
2022-12-22T06:00:40.584Z,15.8
2022-12-22T06:01:43.253Z,15.7
2022-12-22T06:02:46.432Z,15.7
2022-12-22T06:04:54.373Z,15.8
2022-12-22T06:05:56.616Z,15.8
2022-12-22T06:06:59.199Z,15.8
2022-12-22T06:08:01.818Z,15.8
2022-12-22T06:09:04.062Z,15.7
2022-12-22T06:11:11.570Z,15.7
2022-12-22T06:12:14.083Z,15.7
2022-12-22T06:13:16.624Z,15.7
2022-12-22T06:14:18.898Z,15.8
2022-12-22T06:15:21.168Z,15.7
2022-12-22T06:16:23.970Z,15.8
2022-12-22T06:17:26.496Z,15.7
2022-12-22T06:18:29.023Z,15.8
2022-12-22T06:19:31.287Z,15.8
2022-12-22T06:20:33.846Z,15.7
2022-12-22T06:21:36.369Z,15.8
2022-12-22T06:22:38.656Z,15.7
2022-12-22T06:23:41.270Z,15.8
2022-12-22T06:24:43.208Z,15.8
2022-12-22T06:25:45.441Z,15.7
2022-12-22T06:26:47.922Z,15.7
2022-12-22T06:27:50.234Z,15.7
2022-12-22T06:28:52.808Z,15.8
2022-12-22T06:29:55.323Z,15.7
2022-12-22T06:30:57.667Z,15.8
2022-12-22T06:32:00.472Z,15.8
2022-12-22T06:33:02.288Z,15.7
2022-12-22T06:34:04.239Z,15.7
2022-12-22T06:35:06.774Z,15.7
2022-12-22T06:36:09.299Z,15.7
2022-12-22T06:37:11.824Z,15.8
2022-12-22T06:38:14.353Z,15.7
2022-12-22T06:39:16.655Z,15.7
2022-12-22T06:40:18.865Z,15.8
2022-12-22T06:41:21.376Z,15.8
2022-12-22T06:42:23.319Z,15.8
2022-12-22T06:43:25.598Z,15.7
2022-12-22T06:44:27.883Z,15.7
2022-12-22T06:45:30.389Z,15.7
2022-12-22T06:46:33.692Z,15.7
2022-12-22T06:47:36.624Z,15.7
2022-12-22T06:48:38.887Z,15.7
2022-12-22T06:49:41.412Z,15.7
2022-12-22T06:50:43.628Z,15.8
2022-12-22T06:51:46.118Z,15.7
2022-12-22T06:52:48.342Z,15.7
2022-12-22T06:53:50.884Z,15.8
2022-12-22T06:54:53.488Z,15.7
2022-12-22T06:55:56.030Z,15.7
2022-12-22T06:56:58.750Z,15.7
2022-12-22T06:58:01.036Z,15.8
2022-12-22T06:59:03.596Z,15.7
2022-12-22T07:00:05.901Z,15.7
2022-12-22T07:01:08.238Z,15.7
2022-12-22T07:02:10.693Z,15.7
2022-12-22T07:03:14.299Z,15.8
2022-12-22T07:04:17.609Z,15.7
2022-12-22T07:05:19.848Z,15.7
2022-12-22T07:06:21.835Z,15.7
2022-12-22T07:07:24.349Z,15.7
2022-12-22T07:08:26.878Z,15.7
2022-12-22T07:09:29.191Z,15.7
2022-12-22T07:10:31.820Z,15.8
2022-12-22T07:11:34.035Z,15.7
2022-12-22T07:12:36.270Z,15.8
2022-12-22T07:13:38.521Z,15.7
2022-12-22T07:14:41.062Z,15.7
2022-12-22T07:15:43.766Z,15.7
2022-12-22T07:16:46.426Z,15.7
2022-12-22T07:17:49.565Z,15.7
2022-12-22T07:18:52.056Z,15.7
2022-12-22T07:19:54.559Z,15.7
2022-12-22T07:20:57.132Z,15.8
2022-12-22T07:21:59.421Z,15.7
2022-12-22T07:23:02.081Z,15.8
2022-12-22T07:24:04.354Z,15.7
2022-12-22T07:25:06.901Z,15.6
2022-12-22T07:26:09.501Z,15.6
2022-12-22T07:27:12.161Z,15.6
2022-12-22T07:29:19.091Z,15.7
2022-12-22T07:30:21.597Z,15.7
2022-12-22T07:31:24.011Z,15.7
2022-12-22T07:32:27.038Z,15.7
2022-12-22T07:33:29.584Z,15.7
2022-12-22T07:34:32.351Z,15.7
2022-12-22T07:35:34.859Z,15.7
2022-12-22T07:36:37.379Z,15.7
2022-12-22T07:37:39.348Z,15.7
2022-12-22T07:38:41.904Z,15.7
2022-12-22T07:39:44.194Z,15.8
2022-12-22T07:41:51.451Z,15.7
2022-12-22T07:42:54.036Z,15.7
2022-12-22T07:43:56.539Z,15.6
2022-12-22T07:44:59.084Z,15.7
2022-12-22T07:46:01.548Z,15.7
2022-12-22T07:47:04.194Z,15.7
2022-12-22T07:48:06.744Z,15.7
2022-12-22T07:49:09.273Z,15.6
2022-12-22T07:50:11.272Z,15.7
2022-12-22T07:51:13.517Z,15.7
2022-12-22T07:52:16.102Z,15.6
2022-12-22T07:53:18.053Z,15.7
2022-12-22T07:54:20.636Z,15.5
2022-12-22T07:55:23.168Z,15.7
2022-12-22T07:56:25.743Z,15.7
2022-12-22T07:57:27.706Z,15.6
2022-12-22T07:58:30.295Z,15.6
2022-12-22T07:59:32.519Z,15.6
2022-12-22T08:00:35.065Z,15.7
2022-12-22T08:01:37.571Z,15.7
2022-12-22T08:02:40.590Z,15.7
2022-12-22T08:03:43.980Z,15.7
2022-12-22T08:04:46.619Z,15.5
2022-12-22T08:05:49.220Z,15.6
2022-12-22T08:06:51.469Z,15.6
2022-12-22T08:07:53.176Z,15.7
2022-12-22T08:08:55.713Z,15.7
2022-12-22T08:09:57.934Z,15.6
2022-12-22T08:11:00.476Z,15.7
2022-12-22T08:12:02.724Z,15.6
2022-12-22T08:13:05.441Z,15.6
2022-12-22T08:14:08.304Z,15.6
2022-12-22T08:15:10.586Z,15.6
2022-12-22T08:16:13.266Z,15.6
2022-12-22T08:17:15.877Z,15.6
2022-12-22T08:18:18.438Z,15.7
2022-12-22T08:19:20.124Z,15.6
2022-12-22T08:20:22.407Z,15.7
2022-12-22T08:21:24.381Z,15.7
2022-12-22T08:22:26.399Z,15.7
2022-12-22T08:23:28.402Z,15.7
2022-12-22T08:24:30.655Z,15.6
2022-12-22T08:25:33.223Z,15.7
2022-12-22T08:26:35.775Z,15.6
2022-12-22T08:27:38.334Z,15.7
2022-12-22T08:28:40.884Z,15.7
2022-12-22T08:29:43.266Z,15.6
2022-12-22T08:30:45.050Z,15.6
2022-12-22T08:31:47.516Z,15.7
2022-12-22T08:32:50.593Z,15.7
2022-12-22T08:33:52.887Z,15.6
2022-12-22T08:34:55.111Z,15.7
2022-12-22T08:37:02.593Z,15.7
2022-12-22T08:38:05.144Z,15.7
2022-12-22T08:39:07.649Z,15.6
2022-12-22T08:40:09.631Z,15.7
2022-12-22T08:41:11.903Z,15.7
2022-12-22T08:42:14.468Z,15.7
2022-12-22T08:43:16.723Z,15.7
2022-12-22T08:44:18.791Z,15.6
2022-12-22T08:45:21.401Z,15.6
2022-12-22T08:46:24.013Z,15.6
2022-12-22T08:47:26.943Z,15.6
2022-12-22T08:48:30.151Z,15.7
2022-12-22T08:49:32.405Z,15.5
2022-12-22T08:50:34.631Z,15.7
2022-12-22T08:51:36.866Z,15.7
2022-12-22T08:52:38.856Z,15.5
2022-12-22T08:54:46.523Z,15.4
2022-12-22T08:55:48.792Z,15.6
2022-12-22T08:56:51.324Z,15.6
2022-12-22T08:58:58.008Z,15.7
2022-12-22T09:00:00.323Z,15.8
2022-12-22T09:01:03.099Z,15.6
2022-12-22T09:02:06.148Z,15.7
2022-12-22T09:03:09.791Z,15.7
2022-12-22T09:04:12.523Z,15.6
2022-12-22T09:05:15.123Z,15.7
2022-12-22T09:06:17.648Z,15.5
2022-12-22T09:07:24.689Z,15.6
2022-12-22T09:08:27.239Z,15.7
2022-12-22T09:09:29.555Z,15.5
2022-12-22T09:10:31.812Z,15.6
2022-12-22T09:11:34.328Z,15.7
2022-12-22T09:12:36.849Z,15.7
2022-12-22T09:13:39.122Z,15.5
2022-12-22T09:14:41.649Z,15.6
2022-12-22T09:15:44.229Z,15.5
2022-12-22T09:16:47.088Z,15.4
2022-12-22T09:17:50.099Z,15.6
2022-12-22T09:18:52.362Z,15.7
2022-12-22T09:19:53.768Z,15.7
2022-12-22T09:20:56.075Z,15.6
2022-12-22T09:21:58.312Z,15.8
2022-12-22T09:22:59.983Z,15.7
2022-12-22T09:24:02.497Z,15.7
2022-12-22T09:25:04.726Z,15.6
2022-12-22T09:26:06.975Z,15.6
2022-12-22T09:27:09.244Z,15.7
2022-12-22T09:28:11.203Z,15.6
2022-12-22T09:29:13.456Z,15.7
2022-12-22T09:30:15.690Z,15.7
2022-12-22T09:31:18.359Z,15.5
2022-12-22T09:32:21.472Z,15.5
2022-12-22T09:33:23.839Z,15.6
2022-12-22T09:34:26.371Z,15.6
2022-12-22T09:35:28.619Z,15.8
2022-12-22T09:36:31.260Z,15.6
2022-12-22T09:37:33.259Z,15.6
2022-12-22T09:38:35.807Z,15.5
2022-12-22T09:39:38.327Z,15.6
2022-12-22T09:40:40.868Z,15.7
2022-12-22T09:41:43.412Z,15.6
2022-12-22T09:42:45.931Z,15.6
2022-12-22T09:43:48.206Z,15.7
2022-12-22T09:44:50.434Z,15.6
2022-12-22T09:45:53.129Z,15.7
2022-12-22T09:46:55.377Z,15.5
2022-12-22T09:47:58.139Z,15.6
2022-12-22T09:49:00.130Z,15.6
2022-12-22T09:50:02.660Z,15.6
2022-12-22T09:51:05.184Z,15.7
2022-12-22T09:52:07.735Z,15.6
2022-12-22T09:53:10.263Z,15.6
2022-12-22T09:54:12.791Z,15.6
2022-12-22T09:55:14.998Z,15.5
2022-12-22T09:56:17.255Z,15.5
2022-12-22T09:57:19.505Z,15.6
2022-12-22T09:59:26.450Z,15.6
2022-12-22T10:00:29.008Z,15.6
2022-12-22T10:01:31.488Z,15.5
2022-12-22T10:02:34.698Z,15.6
2022-12-22T10:03:37.746Z,15.7
2022-12-22T10:04:40.302Z,15.7
2022-12-22T10:05:42.533Z,15.7
2022-12-22T10:06:44.797Z,15.6
2022-12-22T10:07:47.075Z,15.8
2022-12-22T10:08:49.594Z,15.5
2022-12-22T10:09:52.670Z,15.6
2022-12-22T10:10:55.077Z,15.7
2022-12-22T10:11:57.659Z,15.7
2022-12-22T10:12:59.969Z,15.5
2022-12-22T10:14:02.219Z,15.5
2022-12-22T10:15:04.477Z,15.7
2022-12-22T10:16:06.769Z,15.6
2022-12-22T10:17:09.152Z,15.7
2022-12-22T10:18:11.491Z,15.7
2022-12-22T10:19:16.264Z,15.7
2022-12-22T10:20:19.505Z,15.7
2022-12-22T10:21:21.788Z,15.7
2022-12-22T10:22:24.296Z,15.6
2022-12-22T10:23:26.609Z,15.7
2022-12-22T10:24:28.610Z,15.7
2022-12-22T10:26:35.913Z,15.7
2022-12-22T10:28:42.896Z,15.6
2022-12-22T10:29:45.516Z,15.7
2022-12-22T10:30:47.738Z,15.7
2022-12-22T10:31:50.435Z,15.6
2022-12-22T10:32:52.563Z,15.6
2022-12-22T10:33:55.154Z,15.5
2022-12-22T10:34:57.788Z,15.7
2022-12-22T10:35:59.762Z,15.7
2022-12-22T10:37:02.343Z,15.7
2022-12-22T10:39:09.606Z,15.6
2022-12-22T10:40:12.003Z,15.7
2022-12-22T10:41:15.219Z,15.6
2022-12-22T10:42:17.245Z,15.5
2022-12-22T10:43:19.784Z,15.7
2022-12-22T10:44:22.082Z,15.5
2022-12-22T10:45:24.328Z,15.6
2022-12-22T10:46:27.037Z,15.7
2022-12-22T10:47:29.885Z,15.7
2022-12-22T10:48:32.413Z,15.6
2022-12-22T10:50:36.322Z,15.7
2022-12-22T10:51:38.909Z,15.6
2022-12-22T10:52:41.418Z,15.7
2022-12-22T10:53:43.958Z,15.7
2022-12-22T10:54:46.253Z,15.6
2022-12-22T10:55:48.522Z,15.6
2022-12-22T10:56:50.790Z,15.5
2022-12-22T10:57:52.743Z,15.5
2022-12-22T10:58:54.967Z,15.5
2022-12-22T10:59:57.536Z,15.5
2022-12-22T11:00:59.898Z,15.7
2022-12-22T11:02:02.746Z,15.6
2022-12-22T11:03:06.169Z,15.5
2022-12-22T11:04:09.440Z,15.6
2022-12-22T11:05:12.382Z,15.6
2022-12-22T11:06:14.133Z,15.7
2022-12-22T11:07:16.732Z,15.8
2022-12-22T11:08:19.261Z,15.7
2022-12-22T11:10:26.571Z,15.7
2022-12-22T11:11:28.823Z,15.7
2022-12-22T11:12:30.796Z,15.5
2022-12-22T11:13:33.052Z,15.7
2022-12-22T11:14:35.560Z,15.6
2022-12-22T11:15:38.098Z,15.6
2022-12-22T11:16:39.956Z,15.7
2022-12-22T11:17:42.870Z,15.5
2022-12-22T11:18:45.367Z,15.5
2022-12-22T11:19:47.584Z,15.5
2022-12-22T11:20:50.152Z,15.7
2022-12-22T11:21:52.727Z,15.6
2022-12-22T11:22:55.519Z,15.6
2022-12-22T11:23:57.457Z,15.5
2022-12-22T11:24:59.974Z,15.6
2022-12-22T11:26:02.533Z,15.5
2022-12-22T11:27:03.943Z,15.5
2022-12-22T11:28:06.199Z,15.6
2022-12-22T11:29:08.467Z,15.6
2022-12-22T11:30:10.750Z,15.6
2022-12-22T11:31:13.472Z,15.7
2022-12-22T11:32:16.361Z,15.7
2022-12-22T11:33:18.291Z,15.6
2022-12-22T11:34:22.122Z,15.7
2022-12-22T11:35:24.411Z,15.6
2022-12-22T11:36:26.669Z,15.7
2022-12-22T11:37:28.934Z,15.6
2022-12-22T11:38:32.681Z,15.5
2022-12-22T11:39:35.197Z,15.5
2022-12-22T11:40:37.450Z,15.6
2022-12-22T11:41:40.012Z,15.7
2022-12-22T11:42:42.533Z,15.7
2022-12-22T11:43:45.062Z,15.6
2022-12-22T11:44:47.297Z,15.6
2022-12-22T11:45:49.790Z,15.7
2022-12-22T11:46:52.477Z,15.4
2022-12-22T11:47:55.388Z,15.7
2022-12-22T11:48:57.919Z,15.7
2022-12-22T11:52:10.792Z,15.6
2022-12-22T11:53:15.143Z,15.7
2022-12-22T11:54:17.825Z,15.4
2022-12-22T11:55:20.435Z,15.7
2022-12-22T11:56:22.476Z,15.6
2022-12-22T11:57:25.102Z,15.7
2022-12-22T11:58:27.671Z,15.7
2022-12-22T11:59:30.149Z,15.5
2022-12-22T12:01:37.578Z,15.6
2022-12-22T12:02:40.459Z,15.5
2022-12-22T12:03:42.958Z,15.5
2022-12-22T12:04:45.193Z,15.7
2022-12-22T12:05:47.708Z,15.7
2022-12-22T12:06:50.247Z,15.8
2022-12-22T12:07:52.516Z,15.6
2022-12-22T12:08:54.792Z,15.6
2022-12-22T12:09:57.414Z,15.6
2022-12-22T12:10:59.635Z,15.7
2022-12-22T12:12:02.155Z,15.7
2022-12-22T12:13:04.180Z,15.6
2022-12-22T12:14:06.437Z,15.6
2022-12-22T12:15:08.386Z,15.7
2022-12-22T12:16:11.007Z,15.7
2022-12-22T12:17:13.893Z,15.6
2022-12-22T12:18:16.122Z,15.7
2022-12-22T12:20:23.669Z,15.7
2022-12-22T12:21:26.237Z,15.6
2022-12-22T12:22:29.480Z,15.7
2022-12-22T12:23:32.040Z,15.5
2022-12-22T12:24:34.102Z,15.7
2022-12-22T12:25:36.709Z,15.7
2022-12-22T12:26:38.919Z,15.6
2022-12-22T12:27:41.468Z,15.6
2022-12-22T12:28:43.775Z,15.7
2022-12-22T12:30:51.397Z,15.5
2022-12-22T12:31:54.171Z,15.5
2022-12-22T12:32:56.999Z,15.7
2022-12-22T12:33:59.272Z,15.6
2022-12-22T12:35:01.548Z,15.7
2022-12-22T12:36:04.092Z,15.6
2022-12-22T12:37:06.637Z,15.7
2022-12-22T12:38:13.098Z,15.6
2022-12-22T12:39:14.396Z,15.7
2022-12-22T12:40:16.432Z,15.7
2022-12-22T12:41:19.012Z,15.7
2022-12-22T12:42:21.589Z,15.7
2022-12-22T12:43:24.219Z,15.6
2022-12-22T12:44:26.793Z,15.6
2022-12-22T12:45:29.076Z,15.6
2022-12-22T12:46:31.708Z,15.6
2022-12-22T12:47:34.104Z,15.6
2022-12-22T12:48:36.645Z,15.6
2022-12-22T12:49:43.115Z,15.7
2022-12-22T12:50:45.649Z,15.6
2022-12-22T12:51:47.667Z,15.7
2022-12-22T12:52:49.928Z,15.6
2022-12-22T12:53:51.967Z,15.7
2022-12-22T12:54:54.181Z,15.6
2022-12-22T12:55:56.745Z,15.5
2022-12-22T12:56:59.416Z,15.6
2022-12-22T12:58:01.728Z,15.7
2022-12-22T12:59:04.319Z,15.7
2022-12-22T13:00:06.647Z,15.7
2022-12-22T13:01:09.096Z,15.7
2022-12-22T13:02:12.017Z,15.7
2022-12-22T13:04:20.380Z,15.7
2022-12-22T13:05:23.330Z,15.6
2022-12-22T13:06:25.987Z,15.6
2022-12-22T13:07:28.251Z,15.6
2022-12-22T13:08:30.270Z,15.7
2022-12-22T13:10:37.500Z,15.6
2022-12-22T13:12:45.043Z,15.6
2022-12-22T13:13:47.805Z,15.7
2022-12-22T13:14:50.264Z,15.5
2022-12-22T13:15:52.438Z,15.7
2022-12-22T13:16:54.668Z,15.6
2022-12-22T13:17:57.596Z,15.6
2022-12-22T13:19:00.378Z,15.7
2022-12-22T13:20:03.652Z,15.8
2022-12-22T13:22:11.554Z,15.7
2022-12-22T13:23:13.528Z,15.7
2022-12-22T13:25:20.859Z,15.7
2022-12-22T13:26:23.439Z,15.5
2022-12-22T13:27:26.024Z,15.7
2022-12-22T13:28:29.503Z,15.7
2022-12-22T13:29:32.152Z,15.6
2022-12-22T13:30:34.429Z,15.6
2022-12-22T13:31:37.067Z,15.6
2022-12-22T13:32:39.181Z,15.6
2022-12-22T13:33:41.429Z,15.7
2022-12-22T13:36:53.917Z,15.7
2022-12-22T13:37:55.873Z,15.7
2022-12-22T13:38:58.405Z,15.7
2022-12-22T13:40:00.675Z,15.7
2022-12-22T13:41:03.243Z,15.7
2022-12-22T13:42:06.036Z,15.6
2022-12-22T13:43:08.876Z,15.5
2022-12-22T13:44:11.172Z,15.6
2022-12-22T13:45:13.825Z,15.7
2022-12-22T13:46:15.933Z,15.7
2022-12-22T13:47:18.977Z,15.6
2022-12-22T13:48:21.589Z,15.7
2022-12-22T13:50:29.151Z,15.5
2022-12-22T13:51:31.131Z,15.7
2022-12-22T13:52:33.659Z,15.6
2022-12-22T13:54:40.603Z,15.6
2022-12-22T13:55:42.568Z,15.6
2022-12-22T13:56:45.157Z,15.7
2022-12-22T13:57:48.601Z,15.6
2022-12-22T13:58:55.974Z,15.4
2022-12-22T13:59:58.535Z,15.6
2022-12-22T14:01:01.453Z,15.7
2022-12-22T14:02:04.038Z,15.6
2022-12-22T14:04:12.767Z,15.7
2022-12-22T14:05:15.846Z,15.6
2022-12-22T14:06:18.098Z,15.6
2022-12-22T14:07:20.381Z,15.7
2022-12-22T14:08:22.384Z,15.6
2022-12-22T14:09:24.919Z,15.7
2022-12-22T14:10:27.473Z,15.7
2022-12-22T14:11:29.715Z,15.8
2022-12-22T14:12:31.965Z,15.7
2022-12-22T14:13:34.488Z,15.7
2022-12-22T14:14:36.471Z,15.7
2022-12-22T14:15:39.035Z,15.7
2022-12-22T14:16:41.749Z,15.7
2022-12-22T14:18:49.293Z,15.7
2022-12-22T14:19:51.811Z,15.7
2022-12-22T14:20:53.781Z,15.6
2022-12-22T14:21:56.030Z,15.6
2022-12-22T14:22:58.298Z,15.7
2022-12-22T14:24:00.835Z,15.7
2022-12-22T14:25:03.077Z,15.7
2022-12-22T14:26:05.629Z,15.7
2022-12-22T14:27:07.915Z,15.7
2022-12-22T14:28:10.448Z,15.7